createdAt,value
2019-02-16T15:26:28.250Z,4.00
2019-02-16T15:27:23.582Z,80.00
2019-02-16T15:31:56.788Z,3928.00
2019-02-16T15:32:34.362Z,3976.00
2019-02-16T15:33:34.615Z,4000.00
2019-02-16T15:34:34.833Z,4160.00
2019-02-16T15:35:35.067Z,3632.00
2019-02-16T15:36:35.156Z,4024.00
2019-02-16T15:37:35.378Z,3976.00
2019-02-16T15:38:35.621Z,3920.00
2019-02-16T15:39:35.827Z,3876.00
2019-02-16T15:40:36.028Z,3816.00
2019-02-16T15:41:36.219Z,3740.00
2019-02-16T15:42:36.424Z,3684.00
2019-02-16T15:43:36.673Z,4116.00
2019-02-16T15:44:36.880Z,3988.00
2019-02-16T15:45:37.109Z,4028.00
2019-02-16T15:46:37.331Z,3732.00
2019-02-16T15:47:37.545Z,3788.00
2019-02-16T15:48:38.704Z,3724.00
2019-02-16T15:49:38.075Z,3476.00
2019-02-16T15:50:38.181Z,3672.00
2019-02-16T15:51:38.360Z,3540.00
2019-02-16T15:52:38.530Z,3388.00
2019-02-16T15:53:38.735Z,3388.00
2019-02-16T15:54:39.008Z,3280.00
2019-02-16T15:55:39.057Z,3284.00
2019-02-16T15:56:39.236Z,3328.00
2019-02-16T15:57:39.417Z,3100.00
2019-02-16T15:58:39.571Z,2772.00
2019-02-16T15:59:39.730Z,2480.00
2019-02-16T16:00:39.966Z,2104.00
2019-02-16T16:01:40.234Z,1884.00
2019-02-16T16:02:40.420Z,1832.00
2019-02-16T16:03:40.629Z,1784.00
2019-02-16T16:04:40.790Z,1744.00
2019-02-16T16:05:40.976Z,1708.00
2019-02-16T16:06:42.332Z,1660.00
2019-02-16T16:07:42.463Z,1624.00
2019-02-16T16:08:42.772Z,1580.00
2019-02-16T16:09:42.916Z,1536.00
2019-02-16T16:10:43.018Z,1492.00
2019-02-16T16:11:43.282Z,1452.00
2019-02-16T16:12:43.389Z,1408.00
2019-02-16T16:13:44.351Z,1356.00
2019-02-16T16:14:43.807Z,1312.00
2019-02-16T16:15:44.833Z,1268.00
2019-02-16T16:16:45.129Z,1232.00
2019-02-16T16:17:44.295Z,1188.00
2019-02-16T16:18:44.518Z,1140.00
2019-02-16T16:19:44.773Z,1088.00
2019-02-16T16:20:44.844Z,1036.00
2019-02-16T16:21:45.042Z,984.00
2019-02-16T16:22:45.241Z,924.00
2019-02-16T16:23:45.365Z,876.00
2019-02-16T16:24:45.533Z,828.00
2019-02-16T16:25:46.377Z,780.00
2019-02-16T16:26:46.882Z,732.00
2019-02-16T16:27:46.869Z,684.00
2019-02-16T16:28:46.194Z,636.00
2019-02-16T16:29:46.430Z,588.00
2019-02-16T16:30:46.581Z,548.00
2019-02-16T16:31:46.751Z,512.00
2019-02-16T16:32:46.891Z,468.00
2019-02-16T16:33:47.078Z,432.00
2019-02-16T16:34:47.322Z,396.00
2019-02-16T16:35:47.441Z,360.00
2019-02-16T16:36:47.577Z,328.00
2019-02-16T16:37:47.750Z,300.00
2019-02-16T16:38:47.929Z,268.00
2019-02-16T16:39:48.068Z,244.00
2019-02-16T16:40:48.869Z,216.00
2019-02-16T16:41:48.381Z,192.00
2019-02-16T16:42:49.554Z,172.00
2019-02-16T16:43:48.714Z,152.00
2019-02-16T16:44:48.852Z,140.00
2019-02-16T16:45:48.995Z,124.00
2019-02-16T16:46:49.209Z,108.00
2019-02-16T16:47:49.360Z,92.00
2019-02-16T16:48:49.501Z,80.00
2019-02-16T16:49:49.604Z,72.00
2019-02-16T16:50:49.828Z,64.00
2019-02-16T16:51:50.098Z,56.00
2019-02-16T16:52:50.226Z,44.00
2019-02-16T16:53:50.386Z,40.00
2019-02-16T16:54:50.489Z,32.00
2019-02-16T16:55:50.698Z,28.00
2019-02-16T16:56:50.931Z,24.00
2019-02-16T16:57:51.167Z,20.00
2019-02-16T16:58:51.438Z,16.00
2019-02-16T16:59:51.570Z,12.00
2019-02-16T17:00:51.699Z,12.00
2019-02-16T17:01:51.926Z,8.00
2019-02-16T17:02:52.165Z,8.00
2019-02-16T17:16:55.933Z,0.00
2019-02-16T17:18:09.281Z,0.00
2019-02-16T17:18:54.490Z,0.00
2019-02-16T17:19:54.725Z,0.00
2019-02-16T17:20:54.849Z,4.00
2019-02-16T17:21:56.825Z,0.00
2019-02-16T17:22:56.231Z,0.00
2019-02-16T17:23:56.391Z,0.00
2019-02-16T17:24:56.619Z,0.00
2019-02-16T17:25:56.797Z,0.00
2019-02-16T17:26:57.015Z,0.00
2019-02-16T17:27:57.190Z,0.00
2019-02-16T17:28:57.455Z,0.00
2019-02-16T17:29:57.668Z,0.00
2019-02-16T17:30:57.891Z,0.00
2019-02-16T17:31:58.028Z,0.00
2019-02-16T17:32:58.261Z,0.00
2019-02-16T17:33:58.431Z,0.00
2019-02-16T17:34:58.623Z,0.00
2019-02-16T17:35:58.852Z,0.00
2019-02-16T17:36:59.008Z,0.00
2019-02-16T17:37:59.195Z,0.00
2019-02-16T17:38:59.443Z,0.00
2019-02-16T17:39:59.650Z,0.00
2019-02-16T17:40:59.892Z,0.00
2019-02-16T17:42:00.065Z,0.00
2019-02-16T17:43:00.280Z,0.00
2019-02-16T17:44:00.454Z,0.00
2019-02-16T17:45:00.665Z,0.00
2019-02-16T17:46:00.885Z,0.00
2019-02-16T17:47:01.024Z,0.00
2019-02-16T17:48:01.124Z,0.00
2019-02-16T17:49:01.357Z,0.00
2019-02-16T17:50:01.588Z,0.00
2019-02-16T17:51:01.737Z,0.00
2019-02-16T17:52:01.823Z,0.00
2019-02-16T17:53:02.036Z,0.00
2019-02-16T17:54:08.103Z,0.00
2019-02-16T17:55:04.396Z,0.00
2019-02-16T17:56:02.582Z,0.00
2019-02-16T17:57:02.729Z,0.00
2019-02-16T17:58:02.858Z,0.00
2019-02-16T17:59:02.981Z,0.00
2019-02-16T18:30:38.059Z,0.00
2019-02-16T18:31:41.910Z,0.00
2019-02-16T18:32:37.467Z,0.00
2019-02-16T18:33:37.758Z,0.00
2019-02-16T18:34:37.866Z,0.00
2019-02-16T18:35:38.338Z,0.00
2019-02-16T18:36:38.626Z,0.00
2019-02-16T18:37:39.064Z,0.00
2019-02-16T18:38:39.420Z,0.00
2019-02-16T18:39:38.664Z,0.00
2019-02-16T18:40:38.827Z,0.00
2019-02-16T18:41:38.966Z,0.00
2019-02-16T18:42:39.091Z,0.00
2019-02-16T18:43:39.323Z,0.00
2019-02-16T18:44:39.429Z,0.00
2019-02-16T18:45:39.660Z,0.00
2019-02-16T18:46:39.934Z,0.00
2019-02-16T18:47:40.108Z,0.00
2019-02-16T18:48:40.282Z,0.00
2019-02-16T18:49:40.420Z,0.00
2019-02-16T18:50:40.593Z,0.00
2019-02-16T18:51:40.773Z,0.00
2019-02-16T18:52:40.927Z,0.00
2019-02-16T18:53:41.027Z,0.00
2019-02-16T18:54:41.247Z,0.00
2019-02-16T18:55:41.489Z,0.00
2019-02-16T18:56:41.725Z,0.00
2019-02-16T18:57:41.848Z,0.00
2019-02-16T18:58:42.875Z,0.00
2019-02-16T18:59:42.207Z,0.00
2019-02-16T20:00:37.499Z,0.00
2019-02-16T20:01:42.346Z,0.00
2019-02-16T20:02:43.388Z,0.00
2019-02-16T20:03:41.523Z,0.00
2019-02-16T20:04:38.846Z,0.00
2019-02-16T20:07:07.086Z,0.00
2019-02-16T20:08:06.169Z,0.00
2019-02-16T20:09:06.316Z,0.00
2019-02-16T20:10:06.472Z,0.00
2019-02-16T20:11:07.370Z,0.00
2019-02-16T20:12:13.668Z,0.00
2019-02-16T20:13:06.940Z,0.00
2019-02-16T20:14:07.041Z,0.00
2019-02-16T20:15:07.209Z,0.00
2019-02-16T20:16:07.319Z,0.00
2019-02-16T20:17:07.421Z,0.00
2019-02-16T20:18:07.556Z,0.00
2019-02-16T20:19:07.680Z,0.00
2019-02-16T20:20:07.829Z,0.00
2019-02-16T20:21:07.933Z,0.00
2019-02-16T20:22:08.144Z,0.00
2019-02-16T20:23:08.376Z,0.00
2019-02-16T20:24:08.610Z,0.00
2019-02-16T20:25:08.849Z,0.00
2019-02-16T20:26:09.089Z,0.00
2019-02-16T20:27:09.332Z,0.00
2019-02-16T20:28:09.587Z,0.00
2019-02-16T20:29:09.838Z,0.00
2019-02-16T20:30:09.938Z,0.00
2019-02-16T20:31:10.157Z,0.00
2019-02-16T20:32:10.377Z,0.00
2019-02-16T20:33:10.611Z,0.00
2019-02-16T20:34:10.834Z,0.00
2019-02-16T20:35:11.052Z,0.00
2019-02-16T20:36:11.276Z,0.00
2019-02-16T20:37:11.520Z,0.00
2019-02-16T20:38:11.617Z,0.00
2019-02-16T20:39:11.905Z,0.00
2019-02-16T20:40:12.042Z,0.00
2019-02-16T20:41:12.130Z,0.00
2019-02-16T20:42:12.370Z,0.00
2019-02-16T20:43:12.579Z,0.00
2019-02-16T20:44:12.845Z,0.00
2019-02-16T20:45:13.001Z,0.00
2019-02-16T20:46:13.117Z,0.00
2019-02-16T20:47:13.290Z,0.00
2019-02-16T20:48:13.445Z,0.00
2019-02-16T20:49:13.549Z,0.00
2019-02-16T20:50:13.687Z,0.00
2019-02-16T20:51:13.828Z,0.00
2019-02-16T20:52:15.127Z,0.00
2019-02-16T20:53:15.284Z,0.00
2019-02-16T20:54:15.512Z,0.00
2019-02-16T20:55:15.710Z,0.00
2019-02-16T20:56:15.916Z,0.00
2019-02-16T20:57:16.095Z,0.00
2019-02-16T20:58:16.279Z,0.00
2019-02-16T20:59:16.501Z,0.00
2019-02-16T21:15:29.790Z,0.00
2019-02-16T21:16:29.919Z,0.00
2019-02-16T21:17:30.082Z,0.00
2019-02-16T21:18:30.331Z,0.00
2019-02-16T21:19:30.876Z,0.00
2019-02-16T21:20:31.179Z,0.00
2019-02-16T21:21:30.911Z,0.00
2019-02-16T21:22:32.366Z,0.00
2019-02-16T21:23:31.890Z,0.00
2019-02-16T21:24:31.310Z,0.00
2019-02-16T21:25:32.658Z,0.00
2019-02-16T21:26:37.224Z,0.00
2019-02-16T21:27:35.017Z,0.00
2019-02-16T21:28:33.319Z,0.00
2019-02-16T21:29:33.433Z,0.00
2019-02-16T21:30:33.684Z,0.00
2019-02-16T21:31:33.819Z,0.00
2019-02-16T21:32:34.070Z,0.00
2019-02-16T21:33:36.328Z,0.00
2019-02-16T21:34:34.330Z,0.00
2019-02-16T21:35:34.496Z,0.00
2019-02-16T21:36:34.620Z,0.00
2019-02-16T21:37:34.874Z,0.00
2019-02-16T21:38:35.036Z,0.00
2019-02-16T21:39:35.214Z,0.00
2019-02-16T21:40:35.376Z,0.00
2019-02-16T21:41:35.498Z,0.00
2019-02-16T21:42:35.678Z,0.00
2019-02-16T21:43:35.798Z,0.00
2019-02-16T21:44:36.119Z,0.00
2019-02-16T21:45:36.221Z,0.00
2019-02-16T21:46:36.384Z,0.00
2019-02-16T21:47:36.568Z,0.00
2019-02-16T21:48:36.749Z,0.00
2019-02-16T21:49:39.298Z,0.00
2019-02-16T21:50:37.018Z,0.00
2019-02-16T21:51:37.373Z,0.00
2019-02-16T21:52:37.412Z,0.00
2019-02-16T21:53:37.559Z,0.00
2019-02-16T21:54:37.693Z,0.00
2019-02-16T21:55:37.924Z,0.00
2019-02-16T21:56:38.029Z,0.00
2019-02-16T21:57:38.283Z,0.00
2019-02-16T21:58:38.413Z,0.00
2019-02-16T21:59:38.641Z,0.00
